createdAt,value
2018-06-02T00:00:24.913Z,58.63
2018-06-02T00:02:53.788Z,59.07
2018-06-02T00:05:22.056Z,59.30
2018-06-02T00:07:49.583Z,64.40
2018-06-02T00:10:17.911Z,61.70
2018-06-02T00:12:46.179Z,58.43
2018-06-02T00:15:14.433Z,63.10
2018-06-02T00:17:42.528Z,66.23
2018-06-02T00:20:10.813Z,64.10
2018-06-02T00:22:39.080Z,61.97
2018-06-02T00:25:07.369Z,61.13
2018-06-02T00:27:36.252Z,59.93
2018-06-02T00:30:04.533Z,61.00
2018-06-02T00:32:32.808Z,62.00
2018-06-02T00:35:01.089Z,65.87
2018-06-02T00:37:28.585Z,60.47
2018-06-02T00:39:56.107Z,64.90
2018-06-02T00:42:23.608Z,64.40
2018-06-02T00:44:51.109Z,65.50
2018-06-02T00:47:19.418Z,62.53
2018-06-02T00:49:46.957Z,64.47
2018-06-02T00:52:15.798Z,61.00
2018-06-02T00:54:55.200Z,61.80
2018-06-02T00:57:23.704Z,66.97
2018-06-02T00:59:51.236Z,65.40
2018-06-02T01:02:19.219Z,67.20
2018-06-02T01:04:46.749Z,65.53
2018-06-02T01:07:15.017Z,64.50
2018-06-02T01:09:43.308Z,83.70
2018-06-02T01:12:10.820Z,99.90
2018-06-02T01:14:38.340Z,105.80
2018-06-02T01:17:05.851Z,107.37
2018-06-02T01:19:34.214Z,100.43
2018-06-02T01:22:01.752Z,111.03
2018-06-02T01:24:30.133Z,109.73
2018-06-02T01:26:57.739Z,113.20
2018-06-02T01:29:26.014Z,109.03
2018-06-02T01:31:54.274Z,113.93
2018-06-02T01:34:21.785Z,114.63
2018-06-02T01:36:49.292Z,116.93
2018-06-02T01:39:16.793Z,108.57
2018-06-02T01:41:44.313Z,103.33
2018-06-02T01:44:11.871Z,99.63
2018-06-02T01:46:39.538Z,97.13
2018-06-02T01:49:07.811Z,93.60
2018-06-02T01:51:35.307Z,90.67
2018-06-02T01:54:02.832Z,94.40
2018-06-02T01:56:31.085Z,86.07
2018-06-02T01:58:58.595Z,89.10
2018-06-02T02:01:26.086Z,98.23
2018-06-02T02:03:53.595Z,88.23
2018-06-02T02:06:21.892Z,86.43
2018-06-02T02:08:49.424Z,92.60
2018-06-02T02:11:17.713Z,94.70
2018-06-02T02:13:45.231Z,98.83
2018-06-02T02:16:12.766Z,102.63
2018-06-02T02:18:40.258Z,107.07
2018-06-02T02:21:07.777Z,108.40
2018-06-02T02:23:35.312Z,104.70
2018-06-02T02:26:02.838Z,111.73
2018-06-02T02:28:30.369Z,114.50
2018-06-02T02:30:57.883Z,128.23
2018-06-02T02:33:25.402Z,125.33
2018-06-02T02:35:52.913Z,127.57
2018-06-02T02:40:54.319Z,129.57
2018-06-02T02:43:21.842Z,124.33
2018-06-02T02:45:49.342Z,122.23
2018-06-02T02:48:16.889Z,121.23
2018-06-02T02:50:44.392Z,117.80
2018-06-02T02:53:12.646Z,122.23
2018-06-02T02:55:40.160Z,125.43
2018-06-02T02:58:07.678Z,117.07
2018-06-02T03:00:36.608Z,110.73
2018-06-02T03:03:04.127Z,108.13
2018-06-02T03:05:32.400Z,113.37
2018-06-02T03:08:00.718Z,104.90
2018-06-02T03:10:29.019Z,107.57
2018-06-02T03:12:56.531Z,98.80
2018-06-02T03:15:24.029Z,98.07
2018-06-02T03:17:51.622Z,98.80
2018-06-02T03:20:19.879Z,95.23
2018-06-02T03:22:47.411Z,90.27
2018-06-02T03:25:14.992Z,85.30
2018-06-02T03:27:42.507Z,83.87
2018-06-02T03:30:10.010Z,80.10
2018-06-02T03:32:37.515Z,76.07
2018-06-02T03:35:05.047Z,74.03
2018-06-02T03:37:33.167Z,71.80
2018-06-02T03:40:01.356Z,65.93
2018-06-02T03:42:28.920Z,57.80
2018-06-02T03:44:56.438Z,55.83
2018-06-02T03:47:24.002Z,58.60
2018-06-02T03:49:52.308Z,56.57
2018-06-02T03:52:20.654Z,54.67
2018-06-02T03:54:48.144Z,54.33
2018-06-02T03:57:15.653Z,55.30
2018-06-02T03:59:43.915Z,53.00
2018-06-02T04:02:11.436Z,49.73
2018-06-02T04:04:38.950Z,53.40
2018-06-02T04:07:07.240Z,50.77
2018-06-02T04:09:34.737Z,52.27
2018-06-02T04:12:02.233Z,49.20
2018-06-02T04:14:30.524Z,51.43
2018-06-02T04:16:58.033Z,48.53
2018-06-02T04:19:25.556Z,50.33
2018-06-02T04:21:53.048Z,50.03
2018-06-02T04:24:20.537Z,45.63
2018-06-02T04:26:48.849Z,48.47
2018-06-02T04:29:17.083Z,43.63
2018-06-02T04:31:44.586Z,45.93
2018-06-02T04:34:12.112Z,43.77
2018-06-02T04:36:41.020Z,42.27
2018-06-02T04:39:09.223Z,40.33
2018-06-02T04:41:36.775Z,40.77
2018-06-02T04:44:05.015Z,41.80
2018-06-02T04:46:33.479Z,40.60
2018-06-02T04:49:01.031Z,41.87
2018-06-02T04:51:28.589Z,37.77
2018-06-02T04:53:56.955Z,41.37
2018-06-02T04:56:24.520Z,41.37
2018-06-02T04:58:52.038Z,40.13
2018-06-02T05:01:19.562Z,40.23
2018-06-02T05:03:47.844Z,40.33
2018-06-02T05:06:16.103Z,38.10
2018-06-02T05:08:43.633Z,40.10
2018-06-02T05:11:11.156Z,39.70
2018-06-02T05:13:39.376Z,41.53
2018-06-02T05:16:06.888Z,40.70
2018-06-02T05:18:34.376Z,38.17
2018-06-02T05:21:01.902Z,37.07
2018-06-02T05:23:29.406Z,43.20
2018-06-02T05:25:56.908Z,38.13
2018-06-02T05:28:25.174Z,40.33
2018-06-02T05:30:53.456Z,36.30
2018-06-02T05:33:21.715Z,38.20
2018-06-02T05:35:50.041Z,41.10
2018-06-02T05:38:17.538Z,39.23
2018-06-02T05:40:45.044Z,37.97
2018-06-02T05:43:12.537Z,36.77
2018-06-02T05:45:40.123Z,40.00
2018-06-02T05:48:08.348Z,39.60
2018-06-02T05:50:35.831Z,41.60
2018-06-02T05:53:03.338Z,38.80
2018-06-02T05:55:31.621Z,43.93
2018-06-02T05:57:59.122Z,37.53
2018-06-02T06:00:26.637Z,40.20
2018-06-02T06:02:54.852Z,42.13
2018-06-02T06:05:22.351Z,40.90
2018-06-02T06:07:50.614Z,40.60
2018-06-02T06:10:18.120Z,40.97
2018-06-02T06:12:45.639Z,42.87
2018-06-02T06:15:13.897Z,42.30
2018-06-02T06:17:41.417Z,39.90
2018-06-02T06:20:08.928Z,41.30
2018-06-02T06:22:36.444Z,45.43
2018-06-02T06:25:03.954Z,49.63
2018-06-02T06:27:32.260Z,42.80
2018-06-02T06:29:59.776Z,44.03
2018-06-02T06:32:27.274Z,42.80
2018-06-02T06:34:54.769Z,43.13
2018-06-02T06:37:22.296Z,46.33
2018-06-02T06:39:49.794Z,45.73
2018-06-02T06:42:17.290Z,48.40
2018-06-02T06:44:44.858Z,46.73
2018-06-02T06:47:12.332Z,49.53
2018-06-02T06:49:39.825Z,49.37
2018-06-02T06:52:07.402Z,46.70
2018-06-02T06:54:34.898Z,50.23
2018-06-02T06:57:02.419Z,47.73
2018-06-02T06:59:30.695Z,44.00
2018-06-02T07:01:58.226Z,50.10
2018-06-02T07:04:25.741Z,47.57
2018-06-02T07:06:53.260Z,47.07
2018-06-02T07:09:20.774Z,47.10
2018-06-02T07:11:48.336Z,48.80
2018-06-02T07:14:16.813Z,47.00
2018-06-02T07:16:44.316Z,45.77
2018-06-02T07:19:11.841Z,48.93
2018-06-02T07:21:39.351Z,48.47
2018-06-02T07:24:08.604Z,46.47
2018-06-02T07:26:36.930Z,42.87
2018-06-02T07:29:05.222Z,46.63
2018-06-02T07:31:32.727Z,44.67
2018-06-02T07:34:00.226Z,49.13
2018-06-02T07:36:28.591Z,48.53
2018-06-02T07:38:56.121Z,44.90
2018-06-02T07:41:23.681Z,47.53
2018-06-02T07:43:51.232Z,43.93
2018-06-02T07:46:18.758Z,45.47
2018-06-02T07:48:46.253Z,47.10
2018-06-02T07:51:13.783Z,50.17
2018-06-02T07:53:42.020Z,47.83
2018-06-02T07:56:10.285Z,51.33
2018-06-02T07:58:38.386Z,47.40
2018-06-02T08:01:06.603Z,53.57
2018-06-02T08:03:34.103Z,49.80
2018-06-02T08:06:02.429Z,46.70
2018-06-02T08:08:29.975Z,50.07
2018-06-02T08:10:57.508Z,51.47
2018-06-02T08:13:25.765Z,53.50
2018-06-02T08:15:53.278Z,50.87
2018-06-02T08:18:20.812Z,49.73
2018-06-02T08:20:48.336Z,51.63
2018-06-02T08:23:15.854Z,48.93
2018-06-02T08:25:43.387Z,54.17
2018-06-02T08:28:10.914Z,49.13
2018-06-02T08:30:38.425Z,51.23
2018-06-02T08:33:05.938Z,49.77
2018-06-02T08:35:34.823Z,48.67
2018-06-02T08:38:02.328Z,50.07
2018-06-02T08:40:30.610Z,54.37
2018-06-02T08:42:58.148Z,54.80
2018-06-02T08:45:25.664Z,49.20
2018-06-02T08:47:53.220Z,51.30
2018-06-02T08:50:20.727Z,53.13
2018-06-02T08:52:48.267Z,52.77
2018-06-02T08:55:16.542Z,48.40
2018-06-02T08:57:44.833Z,50.93
2018-06-02T09:00:12.358Z,51.13
2018-06-02T09:02:40.489Z,49.77
2018-06-02T09:05:08.008Z,49.27
2018-06-02T09:07:36.292Z,50.77
2018-06-02T09:10:04.558Z,48.90
2018-06-02T09:12:32.847Z,51.10
2018-06-02T09:15:00.409Z,48.13
2018-06-02T09:17:27.935Z,51.27
2018-06-02T09:19:55.480Z,48.33
2018-06-02T09:22:23.009Z,47.77
2018-06-02T09:24:50.600Z,49.20
2018-06-02T09:27:18.971Z,45.87
2018-06-02T09:29:46.565Z,47.57
2018-06-02T09:32:14.876Z,47.47
2018-06-02T09:34:42.424Z,47.30
2018-06-02T09:37:09.922Z,45.50
2018-06-02T09:39:37.453Z,47.80
2018-06-02T09:42:05.041Z,46.30
2018-06-02T09:44:32.548Z,41.43
2018-06-02T09:47:00.847Z,43.93
2018-06-02T09:49:28.359Z,40.97
2018-06-02T09:51:55.911Z,43.60
2018-06-02T09:54:23.411Z,38.37
2018-06-02T09:56:50.908Z,39.43
2018-06-02T09:59:18.484Z,40.60
2018-06-02T10:01:46.015Z,38.77
2018-06-02T10:04:13.519Z,37.87
2018-06-02T10:06:41.826Z,40.43
2018-06-02T10:09:09.921Z,38.73
2018-06-02T10:11:38.166Z,35.00
2018-06-02T10:14:05.718Z,34.27
2018-06-02T10:16:34.611Z,34.67
2018-06-02T10:19:03.516Z,31.67
2018-06-02T10:21:31.092Z,33.17
2018-06-02T10:23:59.152Z,31.77
2018-06-02T10:26:26.715Z,36.33
2018-06-02T10:28:54.214Z,30.27
2018-06-02T10:31:21.743Z,32.13
2018-06-02T10:33:49.297Z,31.60
2018-06-02T10:36:16.852Z,33.07
2018-06-02T10:38:44.365Z,32.90
2018-06-02T10:41:13.278Z,33.50
2018-06-02T10:43:40.818Z,30.90
2018-06-02T10:46:09.130Z,30.80
2018-06-02T10:48:36.631Z,29.77
2018-06-02T10:53:38.876Z,30.37
2018-06-02T10:56:06.463Z,32.47
2018-06-02T10:58:33.975Z,34.30
2018-06-02T11:01:01.483Z,33.87
2018-06-02T11:03:29.002Z,39.07
2018-06-02T11:05:56.538Z,38.20
2018-06-02T11:08:24.814Z,37.37
2018-06-02T11:10:53.153Z,37.07
2018-06-02T11:13:20.679Z,37.80
2018-06-02T11:15:49.618Z,36.47
2018-06-02T11:18:17.718Z,37.60
2018-06-02T11:20:45.995Z,37.80
2018-06-02T11:23:14.252Z,36.40
2018-06-02T11:25:42.590Z,37.00
2018-06-02T11:28:10.104Z,40.67
2018-06-02T11:30:38.396Z,38.83
2018-06-02T11:33:05.905Z,41.47
2018-06-02T11:35:35.333Z,43.63
2018-06-02T11:38:05.266Z,45.03
2018-06-02T11:40:32.803Z,43.70
2018-06-02T11:43:01.104Z,40.60
2018-06-02T11:45:28.658Z,41.87
2018-06-02T11:47:56.968Z,42.57
2018-06-02T11:50:24.534Z,45.07
2018-06-02T11:52:52.061Z,43.70
2018-06-02T11:55:20.493Z,40.63
2018-06-02T11:57:48.098Z,40.77
2018-06-02T12:00:15.723Z,40.77
2018-06-02T12:02:43.272Z,39.17
2018-06-02T12:05:10.793Z,40.60
2018-06-02T12:07:38.333Z,37.17
2018-06-02T12:10:06.452Z,37.60
2018-06-02T12:12:34.003Z,37.33
2018-06-02T12:15:01.506Z,39.30
2018-06-02T12:17:29.808Z,33.67
2018-06-02T12:19:57.311Z,35.23
2018-06-02T12:22:24.877Z,35.57
2018-06-02T12:24:52.394Z,33.90
2018-06-02T12:27:19.927Z,34.83
2018-06-02T12:29:48.202Z,34.97
2018-06-02T12:32:16.510Z,33.40
2018-06-02T12:34:44.052Z,32.87
2018-06-02T12:37:11.571Z,31.40
2018-06-02T12:39:39.936Z,29.17
2018-06-02T12:42:07.455Z,31.50
2018-06-02T12:44:34.968Z,32.03
2018-06-02T12:47:03.269Z,28.70
2018-06-02T12:49:31.576Z,28.53
2018-06-02T12:51:59.076Z,29.57
2018-06-02T12:54:26.594Z,29.23
2018-06-02T12:56:54.130Z,27.30
2018-06-02T12:59:21.670Z,23.70
2018-06-02T13:01:49.978Z,25.20
2018-06-02T13:04:17.486Z,23.47
2018-06-02T13:06:45.036Z,26.50
2018-06-02T13:09:12.557Z,23.50
2018-06-02T13:11:40.106Z,24.27
2018-06-02T13:14:07.629Z,23.17
2018-06-02T13:16:35.257Z,23.47
2018-06-02T13:19:02.804Z,23.43
2018-06-02T13:21:30.320Z,25.93
2018-06-02T13:23:58.644Z,25.17
2018-06-02T13:26:26.138Z,21.37
2018-06-02T13:28:53.670Z,22.17
2018-06-02T13:31:21.990Z,22.30
2018-06-02T13:33:50.757Z,21.90
2018-06-02T13:36:18.377Z,21.57
2018-06-02T13:38:45.934Z,24.47
2018-06-02T13:41:13.487Z,23.17
2018-06-02T13:43:41.043Z,22.60
2018-06-02T13:46:08.594Z,25.20
2018-06-02T13:48:36.125Z,22.53
2018-06-02T13:51:04.424Z,23.37
2018-06-02T13:53:31.922Z,23.40
2018-06-02T13:55:59.440Z,22.63
2018-06-02T13:58:26.958Z,24.87
2018-06-02T14:00:54.488Z,22.73
2018-06-02T14:03:22.029Z,21.67
2018-06-02T14:05:49.568Z,21.20
2018-06-02T14:08:17.882Z,20.27
2018-06-02T14:10:46.004Z,20.83
2018-06-02T14:13:14.305Z,23.23
2018-06-02T14:15:41.812Z,20.80
2018-06-02T14:18:09.324Z,20.47
2018-06-02T14:20:36.850Z,21.27
2018-06-02T14:23:04.384Z,21.43
2018-06-02T14:25:32.541Z,20.63
2018-06-02T14:28:00.066Z,17.87
2018-06-02T14:30:27.593Z,15.47
2018-06-02T14:32:55.133Z,14.90
2018-06-02T14:35:23.587Z,15.97
2018-06-02T14:37:51.243Z,14.90
2018-06-02T14:40:18.770Z,16.50
2018-06-02T14:42:47.820Z,16.37
2018-06-02T14:45:15.336Z,14.77
2018-06-02T14:47:42.875Z,15.67
2018-06-02T14:50:11.159Z,14.63
2018-06-02T14:52:39.465Z,13.63
2018-06-02T14:55:07.050Z,14.63
2018-06-02T14:57:34.556Z,14.00
2018-06-02T15:00:02.836Z,14.20
2018-06-02T15:02:31.092Z,15.90
2018-06-02T15:04:59.528Z,13.80
2018-06-02T15:07:27.047Z,13.23
2018-06-02T15:09:56.057Z,16.10
2018-06-02T15:12:23.565Z,15.80
2018-06-02T15:14:51.106Z,14.30
2018-06-02T15:17:18.622Z,15.30
2018-06-02T15:19:47.615Z,16.47
2018-06-02T15:22:15.160Z,17.00
2018-06-02T15:24:43.514Z,18.80
2018-06-02T15:27:10.989Z,16.73
2018-06-02T15:29:39.267Z,15.67
2018-06-02T15:32:07.547Z,16.67
2018-06-02T15:34:35.830Z,15.63
2018-06-02T15:37:04.246Z,18.17
2018-06-02T15:39:31.915Z,17.57
2018-06-02T15:41:59.445Z,17.57
2018-06-02T15:44:26.995Z,20.17
2018-06-02T15:46:55.266Z,18.57
2018-06-02T15:49:23.531Z,18.17
2018-06-02T15:51:52.690Z,19.30
2018-06-02T15:54:21.080Z,17.30
2018-06-02T15:56:48.614Z,15.67
2018-06-02T15:59:16.834Z,16.07
2018-06-02T16:01:45.128Z,17.73
2018-06-02T16:04:13.386Z,19.17
2018-06-02T16:06:40.888Z,18.33
2018-06-02T16:09:08.424Z,19.67
2018-06-02T16:11:35.951Z,19.27
2018-06-02T16:14:03.469Z,20.67
2018-06-02T16:16:30.998Z,17.80
2018-06-02T16:18:59.272Z,19.10
2018-06-02T16:21:27.545Z,20.07
2018-06-02T16:23:55.911Z,19.23
2018-06-02T16:26:25.678Z,19.47
2018-06-02T16:28:53.692Z,18.33
2018-06-02T16:31:21.978Z,17.50
2018-06-02T16:33:50.295Z,16.47
2018-06-02T16:36:17.886Z,16.37
2018-06-02T16:38:45.427Z,16.23
2018-06-02T16:41:13.000Z,18.03
2018-06-02T16:43:40.571Z,15.80
2018-06-02T16:46:08.141Z,15.13
2018-06-02T16:48:35.643Z,17.37
2018-06-02T16:51:03.152Z,16.87
2018-06-02T16:53:31.405Z,17.73
2018-06-02T16:55:58.927Z,15.77
2018-06-02T16:58:26.459Z,16.17
2018-06-02T17:00:55.659Z,16.77
2018-06-02T17:03:24.814Z,17.20
2018-06-02T17:05:52.304Z,19.93
2018-06-02T17:08:20.590Z,16.13
2018-06-02T17:10:48.879Z,18.70
2018-06-02T17:13:17.286Z,17.70
2018-06-02T17:15:44.837Z,19.87
2018-06-02T17:18:12.952Z,16.53
2018-06-02T17:20:40.510Z,18.40
2018-06-02T17:23:08.716Z,21.20
2018-06-02T17:25:36.992Z,17.70
2018-06-02T17:28:05.290Z,19.00
2018-06-02T17:30:33.672Z,16.53
2018-06-02T17:33:01.965Z,18.27
2018-06-02T17:35:29.495Z,18.17
2018-06-02T17:37:57.039Z,17.27
2018-06-02T17:40:25.306Z,18.40
2018-06-02T17:42:53.586Z,18.40
2018-06-02T17:45:21.879Z,17.23
2018-06-02T17:47:49.393Z,17.77
2018-06-02T17:50:16.925Z,17.23
2018-06-02T17:52:44.454Z,17.17
2018-06-02T17:55:11.984Z,17.93
2018-06-02T17:57:39.510Z,16.23
2018-06-02T18:00:07.597Z,20.47
2018-06-02T18:02:35.113Z,17.13
2018-06-02T18:05:02.632Z,16.97
2018-06-02T18:07:30.912Z,16.33
2018-06-02T18:09:59.233Z,16.97
2018-06-02T18:12:26.864Z,15.47
2018-06-02T18:14:55.853Z,14.83
2018-06-02T18:17:24.576Z,15.23
2018-06-02T18:19:52.088Z,15.43
2018-06-02T18:22:20.371Z,15.50
2018-06-02T18:24:49.582Z,15.20
2018-06-02T18:27:17.196Z,14.50
2018-06-02T18:29:44.744Z,15.87
2018-06-02T18:32:12.320Z,15.13
2018-06-02T18:34:39.942Z,16.20
2018-06-02T18:37:07.591Z,15.03
2018-06-02T18:39:35.131Z,15.23
2018-06-02T18:42:03.426Z,15.97
2018-06-02T18:44:30.939Z,15.50
2018-06-02T18:46:59.081Z,15.23
2018-06-02T18:49:26.591Z,16.47
2018-06-02T18:51:54.891Z,15.73
2018-06-02T18:54:22.411Z,18.07
2018-06-02T18:56:49.926Z,18.00
2018-06-02T18:59:17.464Z,21.57
2018-06-02T19:01:45.011Z,18.13
2018-06-02T19:04:13.909Z,20.10
2018-06-02T19:06:43.252Z,20.30
2018-06-02T19:09:11.337Z,19.03
2018-06-02T19:11:39.343Z,23.63
2018-06-02T19:14:07.648Z,20.37
2018-06-02T19:16:35.164Z,23.40
2018-06-02T19:19:03.571Z,21.47
2018-06-02T19:21:31.085Z,26.93
2018-06-02T19:23:58.604Z,23.30
2018-06-02T19:26:26.133Z,24.67
2018-06-02T19:28:55.054Z,26.33
2018-06-02T19:31:22.590Z,24.83
2018-06-02T19:33:50.131Z,24.07
2018-06-02T19:36:18.454Z,19.37
2018-06-02T19:38:45.976Z,20.43
2018-06-02T19:41:14.266Z,22.67
2018-06-02T19:43:41.795Z,22.53
2018-06-02T19:46:09.376Z,22.73
2018-06-02T19:48:36.903Z,23.40
2018-06-02T19:51:04.418Z,25.37
2018-06-02T19:53:31.948Z,25.97
2018-06-02T19:56:00.249Z,33.27
2018-06-02T19:58:27.820Z,35.97
2018-06-02T20:00:55.332Z,32.00
2018-06-02T20:03:23.655Z,27.43
2018-06-02T20:05:51.183Z,34.50
2018-06-02T20:08:19.497Z,34.33
2018-06-02T20:10:47.065Z,33.57
2018-06-02T20:13:14.618Z,32.27
2018-06-02T20:15:42.631Z,31.63
2018-06-02T20:18:10.943Z,33.23
2018-06-02T20:20:38.519Z,31.27
2018-06-02T20:23:06.034Z,29.40
2018-06-02T20:25:34.325Z,32.53
2018-06-02T20:28:01.843Z,28.60
2018-06-02T20:30:29.400Z,29.43
2018-06-02T20:32:56.949Z,32.70
2018-06-02T20:35:25.910Z,41.07
2018-06-02T20:37:53.979Z,49.63
2018-06-02T20:40:21.550Z,39.17
2018-06-02T20:42:49.076Z,50.07
2018-06-02T20:45:17.373Z,34.17
2018-06-02T20:47:44.949Z,33.03
2018-06-02T20:50:12.430Z,34.73
2018-06-02T20:52:40.588Z,36.27
2018-06-02T20:55:08.649Z,32.57
2018-06-02T20:57:36.195Z,29.50
2018-06-02T21:00:03.749Z,29.57
2018-06-02T21:02:31.272Z,30.00
2018-06-02T21:04:59.593Z,30.00
2018-06-02T21:07:27.135Z,31.83
2018-06-02T21:09:54.696Z,31.70
2018-06-02T21:12:22.967Z,28.97
2018-06-02T21:14:50.477Z,32.53
2018-06-02T21:17:18.008Z,31.03
2018-06-02T21:19:45.558Z,35.90
2018-06-02T21:22:13.078Z,33.63
2018-06-02T21:24:40.606Z,37.87
2018-06-02T21:27:08.149Z,39.73
2018-06-02T21:29:36.294Z,40.13
2018-06-02T21:32:03.820Z,34.50
2018-06-02T21:34:32.106Z,36.67
2018-06-02T21:37:00.440Z,41.47
2018-06-02T21:39:28.573Z,40.07
2018-06-02T21:41:57.593Z,40.07
2018-06-02T21:44:25.128Z,40.50
2018-06-02T21:46:53.428Z,38.97
2018-06-02T21:49:21.112Z,40.90
2018-06-02T21:51:48.690Z,42.47
2018-06-02T21:54:16.250Z,38.53
2018-06-02T21:56:43.853Z,38.60
2018-06-02T21:59:11.528Z,42.47
2018-06-02T22:01:39.208Z,43.83
2018-06-02T22:04:06.730Z,43.43
2018-06-02T22:06:34.319Z,41.87
2018-06-02T22:09:01.881Z,39.03
2018-06-02T22:11:30.293Z,38.93
2018-06-02T22:13:57.878Z,35.03
2018-06-02T22:16:26.238Z,38.20
2018-06-02T22:18:53.795Z,45.87
2018-06-02T22:21:21.345Z,37.13
2018-06-02T22:23:48.880Z,43.30
2018-06-02T22:26:17.146Z,38.60
2018-06-02T22:28:44.699Z,44.53
2018-06-02T22:31:12.233Z,37.17
2018-06-02T22:33:40.531Z,37.73
2018-06-02T22:36:09.004Z,38.23
2018-06-02T22:38:37.263Z,38.43
2018-06-02T22:41:05.575Z,40.93
2018-06-02T22:43:33.110Z,42.97
2018-06-02T22:46:00.635Z,39.73
2018-06-02T22:48:28.157Z,42.23
2018-06-02T22:50:55.689Z,47.70
2018-06-02T22:53:23.235Z,46.73
2018-06-02T22:55:51.634Z,50.27
2018-06-02T22:58:19.184Z,60.90
2018-06-02T23:00:46.755Z,58.40
2018-06-02T23:03:15.218Z,57.40
2018-06-02T23:05:44.277Z,53.73
2018-06-02T23:08:11.779Z,54.23
2018-06-02T23:10:39.315Z,59.00
2018-06-02T23:13:08.215Z,54.43
2018-06-02T23:15:35.776Z,59.07
2018-06-02T23:18:03.332Z,57.40
2018-06-02T23:20:31.633Z,50.00
2018-06-02T23:22:59.146Z,46.63
2018-06-02T23:25:26.671Z,47.07
2018-06-02T23:27:54.672Z,48.83
2018-06-02T23:30:22.245Z,49.37
2018-06-02T23:32:49.790Z,45.17
2018-06-02T23:35:17.333Z,46.63
2018-06-02T23:37:44.911Z,49.47
2018-06-02T23:40:12.455Z,49.10
2018-06-02T23:42:39.979Z,48.57
2018-06-02T23:45:07.495Z,46.17
2018-06-02T23:47:35.867Z,50.70
2018-06-02T23:50:04.185Z,51.73
2018-06-02T23:52:31.736Z,46.70
2018-06-02T23:54:59.257Z,44.93
2018-06-02T23:57:26.784Z,45.67
2018-06-02T23:59:54.291Z,47.80
